<?xml version="1.0" encoding="UTF-8" standalone="no" ?>
<gpx xmlns="http://www.topografix.com/GPX/1/1" xmlns:xsi="http://www.w3.org/2001/XMLSchema-instance" xsi:schemaLocation="http://www.topografix.com/GPX/1/1 http://www.topografix.com/GPX/1/1/gpx.xsd" version="1.1" creator="VisuGPX - https://www.visugpx.com">
  <metadata>
    <name>12404776-Reprise TERNAND</name>
  </metadata>
  <trk>
    <name><![CDATA[12404776-Reprise TERNAND]]></name>
    <trkseg>
      <trkpt lat="45.94579" lon="4.53702">
        <ele>280</ele>
        <time>2021-01-04T18:13:29Z</time>
      </trkpt>
      <trkpt lat="45.94545" lon="4.53662">
        <ele>275</ele>
        <time>2021-01-04T18:14:28Z</time>
      </trkpt>
      <trkpt lat="45.94527" lon="4.5364">
        <ele>275</ele>
        <time>2021-01-04T18:14:59Z</time>
      </trkpt>
      <trkpt lat="45.94505" lon="4.53607">
        <ele>274</ele>
        <time>2021-01-04T18:15:42Z</time>
      </trkpt>
      <trkpt lat="45.94483" lon="4.53565">
        <ele>274</ele>
        <time>2021-01-04T18:16:30Z</time>
      </trkpt>
      <trkpt lat="45.94472" lon="4.53536">
        <ele>274</ele>
        <time>2021-01-04T18:17:01Z</time>
      </trkpt>
      <trkpt lat="45.94462" lon="4.53506">
        <ele>275</ele>
        <time>2021-01-04T18:17:32Z</time>
      </trkpt>
      <trkpt lat="45.94455" lon="4.53484">
        <ele>275</ele>
        <time>2021-01-04T18:17:54Z</time>
      </trkpt>
      <trkpt lat="45.9444" lon="4.53442">
        <ele>276</ele>
        <time>2021-01-04T18:18:38Z</time>
      </trkpt>
      <trkpt lat="45.94438" lon="4.53439">
        <ele>276</ele>
        <time>2021-01-04T18:18:42Z</time>
      </trkpt>
      <trkpt lat="45.94431" lon="4.53427">
        <ele>277</ele>
        <time>2021-01-04T18:18:57Z</time>
      </trkpt>
      <trkpt lat="45.94425" lon="4.53423">
        <ele>277</ele>
        <time>2021-01-04T18:19:05Z</time>
      </trkpt>
      <trkpt lat="45.9442" lon="4.53422">
        <ele>277</ele>
        <time>2021-01-04T18:19:12Z</time>
      </trkpt>
      <trkpt lat="45.94415" lon="4.53403">
        <ele>278</ele>
        <time>2021-01-04T18:19:31Z</time>
      </trkpt>
      <trkpt lat="45.94416" lon="4.53384">
        <ele>279</ele>
        <time>2021-01-04T18:19:49Z</time>
      </trkpt>
      <trkpt lat="45.94423" lon="4.5337">
        <ele>280</ele>
        <time>2021-01-04T18:20:05Z</time>
      </trkpt>
      <trkpt lat="45.94443" lon="4.53353">
        <ele>280</ele>
        <time>2021-01-04T18:20:36Z</time>
      </trkpt>
      <trkpt lat="45.94455" lon="4.53339">
        <ele>281</ele>
        <time>2021-01-04T18:20:56Z</time>
      </trkpt>
      <trkpt lat="45.9446" lon="4.53331">
        <ele>281</ele>
        <time>2021-01-04T18:21:06Z</time>
      </trkpt>
      <trkpt lat="45.94461" lon="4.53318">
        <ele>282</ele>
        <time>2021-01-04T18:21:18Z</time>
      </trkpt>
      <trkpt lat="45.94467" lon="4.5331">
        <ele>283</ele>
        <time>2021-01-04T18:21:29Z</time>
      </trkpt>
      <trkpt lat="45.94468" lon="4.53297">
        <ele>283</ele>
        <time>2021-01-04T18:21:41Z</time>
      </trkpt>
      <trkpt lat="45.94466" lon="4.53218">
        <ele>292</ele>
        <time>2021-01-04T18:22:55Z</time>
      </trkpt>
      <trkpt lat="45.94483" lon="4.53117">
        <ele>307</ele>
        <time>2021-01-04T18:24:31Z</time>
      </trkpt>
      <trkpt lat="45.94491" lon="4.53036">
        <ele>319</ele>
        <time>2021-01-04T18:25:47Z</time>
      </trkpt>
      <trkpt lat="45.94502" lon="4.5298">
        <ele>325</ele>
        <time>2021-01-04T18:26:41Z</time>
      </trkpt>
      <trkpt lat="45.94534" lon="4.52888">
        <ele>332</ele>
        <time>2021-01-04T18:28:17Z</time>
      </trkpt>
      <trkpt lat="45.94562" lon="4.52805">
        <ele>340</ele>
        <time>2021-01-04T18:29:42Z</time>
      </trkpt>
      <trkpt lat="45.94582" lon="4.52728">
        <ele>350</ele>
        <time>2021-01-04T18:30:58Z</time>
      </trkpt>
      <trkpt lat="45.94586" lon="4.52698">
        <ele>352</ele>
        <time>2021-01-04T18:31:27Z</time>
      </trkpt>
      <trkpt lat="45.94585" lon="4.5266">
        <ele>356</ele>
        <time>2021-01-04T18:32:02Z</time>
      </trkpt>
      <trkpt lat="45.94596" lon="4.5262">
        <ele>352</ele>
        <time>2021-01-04T18:32:42Z</time>
      </trkpt>
      <trkpt lat="45.94604" lon="4.52602">
        <ele>351</ele>
        <time>2021-01-04T18:33:02Z</time>
      </trkpt>
      <trkpt lat="45.94616" lon="4.52581">
        <ele>350</ele>
        <time>2021-01-04T18:33:27Z</time>
      </trkpt>
      <trkpt lat="45.94628" lon="4.52566">
        <ele>348</ele>
        <time>2021-01-04T18:33:48Z</time>
      </trkpt>
      <trkpt lat="45.94643" lon="4.52522">
        <ele>345</ele>
        <time>2021-01-04T18:34:34Z</time>
      </trkpt>
      <trkpt lat="45.9464" lon="4.52518">
        <ele>344</ele>
        <time>2021-01-04T18:34:39Z</time>
      </trkpt>
      <trkpt lat="45.9462" lon="4.52524">
        <ele>343</ele>
        <time>2021-01-04T18:35:06Z</time>
      </trkpt>
      <trkpt lat="45.94627" lon="4.52512">
        <ele>342</ele>
        <time>2021-01-04T18:35:21Z</time>
      </trkpt>
      <trkpt lat="45.94655" lon="4.52494">
        <ele>344</ele>
        <time>2021-01-04T18:36:02Z</time>
      </trkpt>
      <trkpt lat="45.94663" lon="4.52486">
        <ele>344</ele>
        <time>2021-01-04T18:36:15Z</time>
      </trkpt>
      <trkpt lat="45.94684" lon="4.52426">
        <ele>336</ele>
        <time>2021-01-04T18:37:17Z</time>
      </trkpt>
      <trkpt lat="45.94698" lon="4.52374">
        <ele>334</ele>
        <time>2021-01-04T18:38:09Z</time>
      </trkpt>
      <trkpt lat="45.94709" lon="4.52317">
        <ele>332</ele>
        <time>2021-01-04T18:39:04Z</time>
      </trkpt>
      <trkpt lat="45.94711" lon="4.52265">
        <ele>331</ele>
        <time>2021-01-04T18:39:52Z</time>
      </trkpt>
      <trkpt lat="45.94708" lon="4.52247">
        <ele>331</ele>
        <time>2021-01-04T18:40:09Z</time>
      </trkpt>
      <trkpt lat="45.94703" lon="4.5224">
        <ele>331</ele>
        <time>2021-01-04T18:40:19Z</time>
      </trkpt>
      <trkpt lat="45.947" lon="4.52233">
        <ele>331</ele>
        <time>2021-01-04T18:40:26Z</time>
      </trkpt>
      <trkpt lat="45.94702" lon="4.52222">
        <ele>331</ele>
        <time>2021-01-04T18:40:37Z</time>
      </trkpt>
      <trkpt lat="45.94713" lon="4.52202">
        <ele>331</ele>
        <time>2021-01-04T18:41:01Z</time>
      </trkpt>
      <trkpt lat="45.94748" lon="4.52129">
        <ele>331</ele>
        <time>2021-01-04T18:42:23Z</time>
      </trkpt>
      <trkpt lat="45.94763" lon="4.52088">
        <ele>336</ele>
        <time>2021-01-04T18:43:06Z</time>
      </trkpt>
      <trkpt lat="45.94782" lon="4.52055">
        <ele>340</ele>
        <time>2021-01-04T18:43:46Z</time>
      </trkpt>
      <trkpt lat="45.94794" lon="4.51981">
        <ele>348</ele>
        <time>2021-01-04T18:44:56Z</time>
      </trkpt>
      <trkpt lat="45.94796" lon="4.51918">
        <ele>354</ele>
        <time>2021-01-04T18:45:55Z</time>
      </trkpt>
      <trkpt lat="45.94807" lon="4.51806">
        <ele>366</ele>
        <time>2021-01-04T18:47:40Z</time>
      </trkpt>
      <trkpt lat="45.94826" lon="4.51694">
        <ele>379</ele>
        <time>2021-01-04T18:49:26Z</time>
      </trkpt>
      <trkpt lat="45.9483" lon="4.51647">
        <ele>383</ele>
        <time>2021-01-04T18:50:10Z</time>
      </trkpt>
      <trkpt lat="45.94831" lon="4.51577">
        <ele>387</ele>
        <time>2021-01-04T18:51:15Z</time>
      </trkpt>
      <trkpt lat="45.94835" lon="4.51521">
        <ele>393</ele>
        <time>2021-01-04T18:52:08Z</time>
      </trkpt>
      <trkpt lat="45.94839" lon="4.51478">
        <ele>396</ele>
        <time>2021-01-04T18:52:48Z</time>
      </trkpt>
      <trkpt lat="45.94839" lon="4.51459">
        <ele>396</ele>
        <time>2021-01-04T18:53:05Z</time>
      </trkpt>
      <trkpt lat="45.94834" lon="4.51421">
        <ele>398</ele>
        <time>2021-01-04T18:53:41Z</time>
      </trkpt>
      <trkpt lat="45.94833" lon="4.51394">
        <ele>400</ele>
        <time>2021-01-04T18:54:06Z</time>
      </trkpt>
      <trkpt lat="45.94835" lon="4.51359">
        <ele>403</ele>
        <time>2021-01-04T18:54:39Z</time>
      </trkpt>
      <trkpt lat="45.94837" lon="4.51338">
        <ele>404</ele>
        <time>2021-01-04T18:54:59Z</time>
      </trkpt>
      <trkpt lat="45.94845" lon="4.51309">
        <ele>406</ele>
        <time>2021-01-04T18:55:28Z</time>
      </trkpt>
      <trkpt lat="45.94856" lon="4.51276">
        <ele>407</ele>
        <time>2021-01-04T18:56:02Z</time>
      </trkpt>
      <trkpt lat="45.94862" lon="4.5123">
        <ele>410</ele>
        <time>2021-01-04T18:56:45Z</time>
      </trkpt>
      <trkpt lat="45.94862" lon="4.51213">
        <ele>412</ele>
        <time>2021-01-04T18:57:01Z</time>
      </trkpt>
      <trkpt lat="45.94867" lon="4.51199">
        <ele>413</ele>
        <time>2021-01-04T18:57:15Z</time>
      </trkpt>
      <trkpt lat="45.94874" lon="4.51168">
        <ele>415</ele>
        <time>2021-01-04T18:57:46Z</time>
      </trkpt>
      <trkpt lat="45.94874" lon="4.51124">
        <ele>417</ele>
        <time>2021-01-04T18:58:26Z</time>
      </trkpt>
      <trkpt lat="45.9487" lon="4.51096">
        <ele>419</ele>
        <time>2021-01-04T18:58:53Z</time>
      </trkpt>
      <trkpt lat="45.9487" lon="4.5108">
        <ele>420</ele>
        <time>2021-01-04T18:59:08Z</time>
      </trkpt>
      <trkpt lat="45.94856" lon="4.51061">
        <ele>421</ele>
        <time>2021-01-04T18:59:34Z</time>
      </trkpt>
      <trkpt lat="45.94851" lon="4.51045">
        <ele>421</ele>
        <time>2021-01-04T18:59:50Z</time>
      </trkpt>
      <trkpt lat="45.94847" lon="4.51027">
        <ele>422</ele>
        <time>2021-01-04T19:00:07Z</time>
      </trkpt>
      <trkpt lat="45.94834" lon="4.50912">
        <ele>428</ele>
        <time>2021-01-04T19:01:55Z</time>
      </trkpt>
      <trkpt lat="45.94825" lon="4.50808">
        <ele>434</ele>
        <time>2021-01-04T19:03:33Z</time>
      </trkpt>
      <trkpt lat="45.94826" lon="4.50795">
        <ele>436</ele>
        <time>2021-01-04T19:03:45Z</time>
      </trkpt>
      <trkpt lat="45.9483" lon="4.50787">
        <ele>438</ele>
        <time>2021-01-04T19:03:54Z</time>
      </trkpt>
      <trkpt lat="45.94846" lon="4.50776">
        <ele>440</ele>
        <time>2021-01-04T19:04:18Z</time>
      </trkpt>
      <trkpt lat="45.94848" lon="4.50763">
        <ele>441</ele>
        <time>2021-01-04T19:04:30Z</time>
      </trkpt>
      <trkpt lat="45.94864" lon="4.50734">
        <ele>444</ele>
        <time>2021-01-04T19:05:04Z</time>
      </trkpt>
      <trkpt lat="45.94871" lon="4.50723">
        <ele>445</ele>
        <time>2021-01-04T19:05:18Z</time>
      </trkpt>
      <trkpt lat="45.94877" lon="4.50695">
        <ele>448</ele>
        <time>2021-01-04T19:05:45Z</time>
      </trkpt>
      <trkpt lat="45.94879" lon="4.50676">
        <ele>450</ele>
        <time>2021-01-04T19:06:03Z</time>
      </trkpt>
      <trkpt lat="45.9485" lon="4.50598">
        <ele>459</ele>
        <time>2021-01-04T19:07:25Z</time>
      </trkpt>
      <trkpt lat="45.94851" lon="4.50573">
        <ele>463</ele>
        <time>2021-01-04T19:07:49Z</time>
      </trkpt>
      <trkpt lat="45.94863" lon="4.50544">
        <ele>467</ele>
        <time>2021-01-04T19:08:20Z</time>
      </trkpt>
      <trkpt lat="45.94871" lon="4.50496">
        <ele>474</ele>
        <time>2021-01-04T19:09:06Z</time>
      </trkpt>
      <trkpt lat="45.94871" lon="4.50485">
        <ele>476</ele>
        <time>2021-01-04T19:09:16Z</time>
      </trkpt>
      <trkpt lat="45.94869" lon="4.50477">
        <ele>477</ele>
        <time>2021-01-04T19:09:24Z</time>
      </trkpt>
      <trkpt lat="45.94861" lon="4.50467">
        <ele>478</ele>
        <time>2021-01-04T19:09:38Z</time>
      </trkpt>
      <trkpt lat="45.94856" lon="4.50454">
        <ele>480</ele>
        <time>2021-01-04T19:09:52Z</time>
      </trkpt>
      <trkpt lat="45.94855" lon="4.50443">
        <ele>482</ele>
        <time>2021-01-04T19:10:02Z</time>
      </trkpt>
      <trkpt lat="45.94856" lon="4.50429">
        <ele>484</ele>
        <time>2021-01-04T19:10:15Z</time>
      </trkpt>
      <trkpt lat="45.94859" lon="4.50419">
        <ele>485</ele>
        <time>2021-01-04T19:10:25Z</time>
      </trkpt>
      <trkpt lat="45.94861" lon="4.50404">
        <ele>487</ele>
        <time>2021-01-04T19:10:39Z</time>
      </trkpt>
      <trkpt lat="45.9486" lon="4.50359">
        <ele>494</ele>
        <time>2021-01-04T19:11:21Z</time>
      </trkpt>
      <trkpt lat="45.94864" lon="4.50254">
        <ele>507</ele>
        <time>2021-01-04T19:12:59Z</time>
      </trkpt>
      <trkpt lat="45.94865" lon="4.50207">
        <ele>511</ele>
        <time>2021-01-04T19:13:42Z</time>
      </trkpt>
      <trkpt lat="45.94878" lon="4.50139">
        <ele>516</ele>
        <time>2021-01-04T19:14:48Z</time>
      </trkpt>
      <trkpt lat="45.94879" lon="4.50114">
        <ele>519</ele>
        <time>2021-01-04T19:15:11Z</time>
      </trkpt>
      <trkpt lat="45.94879" lon="4.50088">
        <ele>521</ele>
        <time>2021-01-04T19:15:35Z</time>
      </trkpt>
      <trkpt lat="45.94882" lon="4.50042">
        <ele>524</ele>
        <time>2021-01-04T19:16:18Z</time>
      </trkpt>
      <trkpt lat="45.9488" lon="4.49977">
        <ele>530</ele>
        <time>2021-01-04T19:17:18Z</time>
      </trkpt>
      <trkpt lat="45.94881" lon="4.49964">
        <ele>532</ele>
        <time>2021-01-04T19:17:30Z</time>
      </trkpt>
      <trkpt lat="45.94895" lon="4.49937">
        <ele>536</ele>
        <time>2021-01-04T19:18:02Z</time>
      </trkpt>
      <trkpt lat="45.949" lon="4.49922">
        <ele>539</ele>
        <time>2021-01-04T19:18:17Z</time>
      </trkpt>
      <trkpt lat="45.94903" lon="4.49901">
        <ele>542</ele>
        <time>2021-01-04T19:18:37Z</time>
      </trkpt>
      <trkpt lat="45.94905" lon="4.49851">
        <ele>547</ele>
        <time>2021-01-04T19:19:23Z</time>
      </trkpt>
      <trkpt lat="45.94904" lon="4.49799">
        <ele>556</ele>
        <time>2021-01-04T19:20:12Z</time>
      </trkpt>
      <trkpt lat="45.94912" lon="4.49752">
        <ele>567</ele>
        <time>2021-01-04T19:20:57Z</time>
      </trkpt>
      <trkpt lat="45.94909" lon="4.49745">
        <ele>568</ele>
        <time>2021-01-04T19:21:04Z</time>
      </trkpt>
      <trkpt lat="45.94898" lon="4.49738">
        <ele>570</ele>
        <time>2021-01-04T19:21:20Z</time>
      </trkpt>
      <trkpt lat="45.9489" lon="4.49736">
        <ele>570</ele>
        <time>2021-01-04T19:21:31Z</time>
      </trkpt>
      <trkpt lat="45.94867" lon="4.49725">
        <ele>573</ele>
        <time>2021-01-04T19:22:03Z</time>
      </trkpt>
      <trkpt lat="45.94861" lon="4.49713">
        <ele>576</ele>
        <time>2021-01-04T19:22:17Z</time>
      </trkpt>
      <trkpt lat="45.94856" lon="4.49685">
        <ele>584</ele>
        <time>2021-01-04T19:22:44Z</time>
      </trkpt>
      <trkpt lat="45.94854" lon="4.49655">
        <ele>591</ele>
        <time>2021-01-04T19:23:12Z</time>
      </trkpt>
      <trkpt lat="45.94855" lon="4.49644">
        <ele>593</ele>
        <time>2021-01-04T19:23:22Z</time>
      </trkpt>
      <trkpt lat="45.9486" lon="4.49633">
        <ele>594</ele>
        <time>2021-01-04T19:23:34Z</time>
      </trkpt>
      <trkpt lat="45.94867" lon="4.49624">
        <ele>596</ele>
        <time>2021-01-04T19:23:47Z</time>
      </trkpt>
      <trkpt lat="45.94903" lon="4.49559">
        <ele>603</ele>
        <time>2021-01-04T19:25:04Z</time>
      </trkpt>
      <trkpt lat="45.9492" lon="4.495">
        <ele>607</ele>
        <time>2021-01-04T19:26:03Z</time>
      </trkpt>
      <trkpt lat="45.94921" lon="4.4947">
        <ele>609</ele>
        <time>2021-01-04T19:26:31Z</time>
      </trkpt>
      <trkpt lat="45.94929" lon="4.49421">
        <ele>611</ele>
        <time>2021-01-04T19:27:18Z</time>
      </trkpt>
      <trkpt lat="45.94941" lon="4.49403">
        <ele>611</ele>
        <time>2021-01-04T19:27:41Z</time>
      </trkpt>
      <trkpt lat="45.94932" lon="4.49415">
        <ele>611</ele>
        <time>2021-01-04T19:27:57Z</time>
      </trkpt>
      <trkpt lat="45.94929" lon="4.49413">
        <ele>611</ele>
        <time>2021-01-04T19:28:02Z</time>
      </trkpt>
      <trkpt lat="45.94928" lon="4.4941">
        <ele>611</ele>
        <time>2021-01-04T19:28:05Z</time>
      </trkpt>
      <trkpt lat="45.94923" lon="4.49409">
        <ele>611</ele>
        <time>2021-01-04T19:28:12Z</time>
      </trkpt>
      <trkpt lat="45.94912" lon="4.49392">
        <ele>611</ele>
        <time>2021-01-04T19:28:33Z</time>
      </trkpt>
      <trkpt lat="45.94872" lon="4.49345">
        <ele>618</ele>
        <time>2021-01-04T19:29:42Z</time>
      </trkpt>
      <trkpt lat="45.94863" lon="4.49327">
        <ele>621</ele>
        <time>2021-01-04T19:30:03Z</time>
      </trkpt>
      <trkpt lat="45.94858" lon="4.4928">
        <ele>623</ele>
        <time>2021-01-04T19:30:47Z</time>
      </trkpt>
      <trkpt lat="45.94865" lon="4.4922">
        <ele>624</ele>
        <time>2021-01-04T19:31:43Z</time>
      </trkpt>
      <trkpt lat="45.94877" lon="4.49172">
        <ele>624</ele>
        <time>2021-01-04T19:32:31Z</time>
      </trkpt>
      <trkpt lat="45.94881" lon="4.49139">
        <ele>624</ele>
        <time>2021-01-04T19:33:02Z</time>
      </trkpt>
      <trkpt lat="45.9487" lon="4.49068">
        <ele>629</ele>
        <time>2021-01-04T19:34:09Z</time>
      </trkpt>
      <trkpt lat="45.94857" lon="4.49039">
        <ele>629</ele>
        <time>2021-01-04T19:34:41Z</time>
      </trkpt>
      <trkpt lat="45.94839" lon="4.49022">
        <ele>632</ele>
        <time>2021-01-04T19:35:10Z</time>
      </trkpt>
      <trkpt lat="45.94796" lon="4.49004">
        <ele>631</ele>
        <time>2021-01-04T19:36:10Z</time>
      </trkpt>
      <trkpt lat="45.94778" lon="4.49006">
        <ele>631</ele>
        <time>2021-01-04T19:36:34Z</time>
      </trkpt>
      <trkpt lat="45.94759" lon="4.49023">
        <ele>635</ele>
        <time>2021-01-04T19:37:04Z</time>
      </trkpt>
      <trkpt lat="45.94712" lon="4.49084">
        <ele>646</ele>
        <time>2021-01-04T19:38:28Z</time>
      </trkpt>
      <trkpt lat="45.94697" lon="4.49096">
        <ele>648</ele>
        <time>2021-01-04T19:38:51Z</time>
      </trkpt>
      <trkpt lat="45.9465" lon="4.49099">
        <ele>648</ele>
        <time>2021-01-04T19:39:54Z</time>
      </trkpt>
      <trkpt lat="45.9461" lon="4.4908">
        <ele>647</ele>
        <time>2021-01-04T19:40:50Z</time>
      </trkpt>
      <trkpt lat="45.94595" lon="4.49079">
        <ele>648</ele>
        <time>2021-01-04T19:41:10Z</time>
      </trkpt>
      <trkpt lat="45.94573" lon="4.49086">
        <ele>649</ele>
        <time>2021-01-04T19:41:40Z</time>
      </trkpt>
      <trkpt lat="45.94548" lon="4.49082">
        <ele>644</ele>
        <time>2021-01-04T19:42:14Z</time>
      </trkpt>
      <trkpt lat="45.94535" lon="4.49083">
        <ele>642</ele>
        <time>2021-01-04T19:42:31Z</time>
      </trkpt>
      <trkpt lat="45.94464" lon="4.49119">
        <ele>644</ele>
        <time>2021-01-04T19:44:12Z</time>
      </trkpt>
      <trkpt lat="45.94417" lon="4.49148">
        <ele>646</ele>
        <time>2021-01-04T19:45:20Z</time>
      </trkpt>
      <trkpt lat="45.94398" lon="4.49138">
        <ele>648</ele>
        <time>2021-01-04T19:45:47Z</time>
      </trkpt>
      <trkpt lat="45.94368" lon="4.49088">
        <ele>647</ele>
        <time>2021-01-04T19:46:48Z</time>
      </trkpt>
      <trkpt lat="45.94319" lon="4.48984">
        <ele>640</ele>
        <time>2021-01-04T19:48:45Z</time>
      </trkpt>
      <trkpt lat="45.9429" lon="4.48961">
        <ele>643</ele>
        <time>2021-01-04T19:49:29Z</time>
      </trkpt>
      <trkpt lat="45.94257" lon="4.4896">
        <ele>648</ele>
        <time>2021-01-04T19:50:13Z</time>
      </trkpt>
      <trkpt lat="45.94233" lon="4.48966">
        <ele>645</ele>
        <time>2021-01-04T19:50:45Z</time>
      </trkpt>
      <trkpt lat="45.94209" lon="4.48987">
        <ele>640</ele>
        <time>2021-01-04T19:51:23Z</time>
      </trkpt>
      <trkpt lat="45.94193" lon="4.49007">
        <ele>637</ele>
        <time>2021-01-04T19:51:51Z</time>
      </trkpt>
      <trkpt lat="45.94165" lon="4.49083">
        <ele>627</ele>
        <time>2021-01-04T19:53:11Z</time>
      </trkpt>
      <trkpt lat="45.94147" lon="4.49107">
        <ele>624</ele>
        <time>2021-01-04T19:53:44Z</time>
      </trkpt>
      <trkpt lat="45.94048" lon="4.49224">
        <ele>609</ele>
        <time>2021-01-04T19:56:35Z</time>
      </trkpt>
      <trkpt lat="45.94061" lon="4.49181">
        <ele>606</ele>
        <time>2021-01-04T19:57:18Z</time>
      </trkpt>
      <trkpt lat="45.94048" lon="4.49224">
        <ele>609</ele>
        <time>2021-01-04T19:58:02Z</time>
      </trkpt>
      <trkpt lat="45.94022" lon="4.49291">
        <ele>613</ele>
        <time>2021-01-04T19:59:13Z</time>
      </trkpt>
      <trkpt lat="45.93898" lon="4.49477">
        <ele>617</ele>
        <time>2021-01-04T20:03:12Z</time>
      </trkpt>
      <trkpt lat="45.93856" lon="4.49552">
        <ele>614</ele>
        <time>2021-01-04T20:04:41Z</time>
      </trkpt>
      <trkpt lat="45.93838" lon="4.49569">
        <ele>613</ele>
        <time>2021-01-04T20:05:10Z</time>
      </trkpt>
      <trkpt lat="45.93796" lon="4.49639">
        <ele>609</ele>
        <time>2021-01-04T20:06:36Z</time>
      </trkpt>
      <trkpt lat="45.9379" lon="4.49654">
        <ele>608</ele>
        <time>2021-01-04T20:06:52Z</time>
      </trkpt>
      <trkpt lat="45.93749" lon="4.49712">
        <ele>607</ele>
        <time>2021-01-04T20:08:09Z</time>
      </trkpt>
      <trkpt lat="45.93713" lon="4.49753">
        <ele>606</ele>
        <time>2021-01-04T20:09:10Z</time>
      </trkpt>
      <trkpt lat="45.93661" lon="4.49803">
        <ele>605</ele>
        <time>2021-01-04T20:10:34Z</time>
      </trkpt>
      <trkpt lat="45.93607" lon="4.49844">
        <ele>612</ele>
        <time>2021-01-04T20:11:55Z</time>
      </trkpt>
      <trkpt lat="45.93552" lon="4.49924">
        <ele>614</ele>
        <time>2021-01-04T20:13:39Z</time>
      </trkpt>
      <trkpt lat="45.93524" lon="4.49944">
        <ele>614</ele>
        <time>2021-01-04T20:14:21Z</time>
      </trkpt>
      <trkpt lat="45.93503" lon="4.49975">
        <ele>613</ele>
        <time>2021-01-04T20:15:01Z</time>
      </trkpt>
      <trkpt lat="45.93468" lon="4.5006">
        <ele>600</ele>
        <time>2021-01-04T20:16:33Z</time>
      </trkpt>
      <trkpt lat="45.93446" lon="4.50096">
        <ele>594</ele>
        <time>2021-01-04T20:17:18Z</time>
      </trkpt>
      <trkpt lat="45.93422" lon="4.50114">
        <ele>589</ele>
        <time>2021-01-04T20:17:54Z</time>
      </trkpt>
      <trkpt lat="45.93388" lon="4.50112">
        <ele>581</ele>
        <time>2021-01-04T20:18:39Z</time>
      </trkpt>
      <trkpt lat="45.93331" lon="4.50151">
        <ele>569</ele>
        <time>2021-01-04T20:20:03Z</time>
      </trkpt>
      <trkpt lat="45.93221" lon="4.50206">
        <ele>554</ele>
        <time>2021-01-04T20:22:39Z</time>
      </trkpt>
      <trkpt lat="45.93183" lon="4.50235">
        <ele>550</ele>
        <time>2021-01-04T20:23:36Z</time>
      </trkpt>
      <trkpt lat="45.93156" lon="4.50239">
        <ele>546</ele>
        <time>2021-01-04T20:24:12Z</time>
      </trkpt>
      <trkpt lat="45.93078" lon="4.50296">
        <ele>530</ele>
        <time>2021-01-04T20:26:09Z</time>
      </trkpt>
      <trkpt lat="45.93042" lon="4.50314">
        <ele>523</ele>
        <time>2021-01-04T20:27:00Z</time>
      </trkpt>
      <trkpt lat="45.93029" lon="4.50268">
        <ele>522</ele>
        <time>2021-01-04T20:27:46Z</time>
      </trkpt>
      <trkpt lat="45.93024" lon="4.50218">
        <ele>521</ele>
        <time>2021-01-04T20:28:33Z</time>
      </trkpt>
      <trkpt lat="45.93021" lon="4.50163">
        <ele>518</ele>
        <time>2021-01-04T20:29:24Z</time>
      </trkpt>
      <trkpt lat="45.93001" lon="4.5013">
        <ele>510</ele>
        <time>2021-01-04T20:30:05Z</time>
      </trkpt>
      <trkpt lat="45.92965" lon="4.50086">
        <ele>499</ele>
        <time>2021-01-04T20:31:08Z</time>
      </trkpt>
      <trkpt lat="45.92919" lon="4.50039">
        <ele>486</ele>
        <time>2021-01-04T20:32:23Z</time>
      </trkpt>
      <trkpt lat="45.92932" lon="4.50033">
        <ele>485</ele>
        <time>2021-01-04T20:32:41Z</time>
      </trkpt>
      <trkpt lat="45.92919" lon="4.50039">
        <ele>486</ele>
        <time>2021-01-04T20:33:00Z</time>
      </trkpt>
      <trkpt lat="45.92897" lon="4.50068">
        <ele>488</ele>
        <time>2021-01-04T20:33:39Z</time>
      </trkpt>
      <trkpt lat="45.92886" lon="4.50114">
        <ele>491</ele>
        <time>2021-01-04T20:34:25Z</time>
      </trkpt>
      <trkpt lat="45.92883" lon="4.50169">
        <ele>494</ele>
        <time>2021-01-04T20:35:16Z</time>
      </trkpt>
      <trkpt lat="45.92883" lon="4.50207">
        <ele>495</ele>
        <time>2021-01-04T20:35:51Z</time>
      </trkpt>
      <trkpt lat="45.92863" lon="4.50309">
        <ele>489</ele>
        <time>2021-01-04T20:37:29Z</time>
      </trkpt>
      <trkpt lat="45.92854" lon="4.50362">
        <ele>484</ele>
        <time>2021-01-04T20:38:20Z</time>
      </trkpt>
      <trkpt lat="45.92843" lon="4.50398">
        <ele>481</ele>
        <time>2021-01-04T20:38:57Z</time>
      </trkpt>
      <trkpt lat="45.92828" lon="4.50415">
        <ele>478</ele>
        <time>2021-01-04T20:39:22Z</time>
      </trkpt>
      <trkpt lat="45.92797" lon="4.50424">
        <ele>474</ele>
        <time>2021-01-04T20:40:04Z</time>
      </trkpt>
      <trkpt lat="45.92772" lon="4.50434">
        <ele>471</ele>
        <time>2021-01-04T20:40:39Z</time>
      </trkpt>
      <trkpt lat="45.92751" lon="4.50446">
        <ele>469</ele>
        <time>2021-01-04T20:41:09Z</time>
      </trkpt>
      <trkpt lat="45.92704" lon="4.50516">
        <ele>463</ele>
        <time>2021-01-04T20:42:39Z</time>
      </trkpt>
      <trkpt lat="45.92681" lon="4.5054">
        <ele>462</ele>
        <time>2021-01-04T20:43:17Z</time>
      </trkpt>
      <trkpt lat="45.92673" lon="4.50496">
        <ele>461</ele>
        <time>2021-01-04T20:43:59Z</time>
      </trkpt>
      <trkpt lat="45.92671" lon="4.50517">
        <ele>461</ele>
        <time>2021-01-04T20:44:19Z</time>
      </trkpt>
      <trkpt lat="45.92662" lon="4.50539">
        <ele>460</ele>
        <time>2021-01-04T20:44:43Z</time>
      </trkpt>
      <trkpt lat="45.92648" lon="4.50555">
        <ele>459</ele>
        <time>2021-01-04T20:45:07Z</time>
      </trkpt>
      <trkpt lat="45.92643" lon="4.50568">
        <ele>458</ele>
        <time>2021-01-04T20:45:20Z</time>
      </trkpt>
      <trkpt lat="45.92642" lon="4.50583">
        <ele>458</ele>
        <time>2021-01-04T20:45:34Z</time>
      </trkpt>
      <trkpt lat="45.92646" lon="4.50629">
        <ele>458</ele>
        <time>2021-01-04T20:46:17Z</time>
      </trkpt>
      <trkpt lat="45.92644" lon="4.50651">
        <ele>458</ele>
        <time>2021-01-04T20:46:38Z</time>
      </trkpt>
      <trkpt lat="45.92633" lon="4.50686">
        <ele>456</ele>
        <time>2021-01-04T20:47:14Z</time>
      </trkpt>
      <trkpt lat="45.92618" lon="4.50702">
        <ele>454</ele>
        <time>2021-01-04T20:47:39Z</time>
      </trkpt>
      <trkpt lat="45.926" lon="4.5071">
        <ele>452</ele>
        <time>2021-01-04T20:48:04Z</time>
      </trkpt>
      <trkpt lat="45.92577" lon="4.50716">
        <ele>449</ele>
        <time>2021-01-04T20:48:35Z</time>
      </trkpt>
      <trkpt lat="45.92584" lon="4.5072">
        <ele>450</ele>
        <time>2021-01-04T20:48:45Z</time>
      </trkpt>
      <trkpt lat="45.92577" lon="4.50716">
        <ele>449</ele>
        <time>2021-01-04T20:48:55Z</time>
      </trkpt>
      <trkpt lat="45.92517" lon="4.50729">
        <ele>442</ele>
        <time>2021-01-04T20:50:16Z</time>
      </trkpt>
      <trkpt lat="45.92502" lon="4.50736">
        <ele>440</ele>
        <time>2021-01-04T20:50:37Z</time>
      </trkpt>
      <trkpt lat="45.92498" lon="4.50734">
        <ele>439</ele>
        <time>2021-01-04T20:50:43Z</time>
      </trkpt>
      <trkpt lat="45.92365" lon="4.50772">
        <ele>432</ele>
        <time>2021-01-04T20:53:44Z</time>
      </trkpt>
      <trkpt lat="45.92183" lon="4.5082">
        <ele>431</ele>
        <time>2021-01-04T20:57:51Z</time>
      </trkpt>
      <trkpt lat="45.92097" lon="4.50839">
        <ele>433</ele>
        <time>2021-01-04T20:59:47Z</time>
      </trkpt>
      <trkpt lat="45.92078" lon="4.50848">
        <ele>433</ele>
        <time>2021-01-04T21:00:13Z</time>
      </trkpt>
      <trkpt lat="45.92074" lon="4.50854">
        <ele>432</ele>
        <time>2021-01-04T21:00:21Z</time>
      </trkpt>
      <trkpt lat="45.92065" lon="4.50862">
        <ele>432</ele>
        <time>2021-01-04T21:00:35Z</time>
      </trkpt>
      <trkpt lat="45.9196" lon="4.5114">
        <ele>434</ele>
        <time>2021-01-04T21:05:29Z</time>
      </trkpt>
      <trkpt lat="45.91894" lon="4.513">
        <ele>434</ele>
        <time>2021-01-04T21:08:22Z</time>
      </trkpt>
      <trkpt lat="45.91866" lon="4.51374">
        <ele>435</ele>
        <time>2021-01-04T21:09:40Z</time>
      </trkpt>
      <trkpt lat="45.9184" lon="4.51412">
        <ele>436</ele>
        <time>2021-01-04T21:10:29Z</time>
      </trkpt>
      <trkpt lat="45.91764" lon="4.51461">
        <ele>434</ele>
        <time>2021-01-04T21:12:20Z</time>
      </trkpt>
      <trkpt lat="45.91752" lon="4.51479">
        <ele>435</ele>
        <time>2021-01-04T21:12:44Z</time>
      </trkpt>
      <trkpt lat="45.91747" lon="4.51514">
        <ele>434</ele>
        <time>2021-01-04T21:13:17Z</time>
      </trkpt>
      <trkpt lat="45.91743" lon="4.51577">
        <ele>431</ele>
        <time>2021-01-04T21:14:16Z</time>
      </trkpt>
      <trkpt lat="45.91718" lon="4.51657">
        <ele>428</ele>
        <time>2021-01-04T21:15:37Z</time>
      </trkpt>
      <trkpt lat="45.91702" lon="4.51695">
        <ele>426</ele>
        <time>2021-01-04T21:16:18Z</time>
      </trkpt>
      <trkpt lat="45.91694" lon="4.51712">
        <ele>426</ele>
        <time>2021-01-04T21:16:37Z</time>
      </trkpt>
      <trkpt lat="45.91686" lon="4.51714">
        <ele>426</ele>
        <time>2021-01-04T21:16:48Z</time>
      </trkpt>
      <trkpt lat="45.91675" lon="4.51738">
        <ele>425</ele>
        <time>2021-01-04T21:17:15Z</time>
      </trkpt>
      <trkpt lat="45.9163" lon="4.51765">
        <ele>418</ele>
        <time>2021-01-04T21:18:20Z</time>
      </trkpt>
      <trkpt lat="45.9161" lon="4.51795">
        <ele>414</ele>
        <time>2021-01-04T21:18:58Z</time>
      </trkpt>
      <trkpt lat="45.91593" lon="4.51835">
        <ele>412</ele>
        <time>2021-01-04T21:19:42Z</time>
      </trkpt>
      <trkpt lat="45.91585" lon="4.51858">
        <ele>411</ele>
        <time>2021-01-04T21:20:06Z</time>
      </trkpt>
      <trkpt lat="45.91578" lon="4.51909">
        <ele>409</ele>
        <time>2021-01-04T21:20:54Z</time>
      </trkpt>
      <trkpt lat="45.91577" lon="4.51931">
        <ele>407</ele>
        <time>2021-01-04T21:21:15Z</time>
      </trkpt>
      <trkpt lat="45.9158" lon="4.51957">
        <ele>406</ele>
        <time>2021-01-04T21:21:39Z</time>
      </trkpt>
      <trkpt lat="45.91576" lon="4.51992">
        <ele>402</ele>
        <time>2021-01-04T21:22:12Z</time>
      </trkpt>
      <trkpt lat="45.91571" lon="4.52009">
        <ele>400</ele>
        <time>2021-01-04T21:22:29Z</time>
      </trkpt>
      <trkpt lat="45.9153" lon="4.521">
        <ele>389</ele>
        <time>2021-01-04T21:24:10Z</time>
      </trkpt>
      <trkpt lat="45.91506" lon="4.52146">
        <ele>385</ele>
        <time>2021-01-04T21:25:03Z</time>
      </trkpt>
      <trkpt lat="45.91476" lon="4.52214">
        <ele>380</ele>
        <time>2021-01-04T21:26:18Z</time>
      </trkpt>
      <trkpt lat="45.91526" lon="4.52241">
        <ele>382</ele>
        <time>2021-01-04T21:27:29Z</time>
      </trkpt>
      <trkpt lat="45.91561" lon="4.52265">
        <ele>381</ele>
        <time>2021-01-04T21:28:21Z</time>
      </trkpt>
      <trkpt lat="45.91572" lon="4.52275">
        <ele>380</ele>
        <time>2021-01-04T21:28:38Z</time>
      </trkpt>
      <trkpt lat="45.91578" lon="4.52276">
        <ele>380</ele>
        <time>2021-01-04T21:28:46Z</time>
      </trkpt>
      <trkpt lat="45.91618" lon="4.52272">
        <ele>376</ele>
        <time>2021-01-04T21:29:40Z</time>
      </trkpt>
      <trkpt lat="45.91637" lon="4.52276">
        <ele>373</ele>
        <time>2021-01-04T21:30:05Z</time>
      </trkpt>
      <trkpt lat="45.91653" lon="4.52283">
        <ele>370</ele>
        <time>2021-01-04T21:30:28Z</time>
      </trkpt>
      <trkpt lat="45.91666" lon="4.52284">
        <ele>368</ele>
        <time>2021-01-04T21:30:45Z</time>
      </trkpt>
      <trkpt lat="45.91683" lon="4.52282">
        <ele>367</ele>
        <time>2021-01-04T21:31:08Z</time>
      </trkpt>
      <trkpt lat="45.91808" lon="4.52238">
        <ele>360</ele>
        <time>2021-01-04T21:34:00Z</time>
      </trkpt>
      <trkpt lat="45.91823" lon="4.5223">
        <ele>359</ele>
        <time>2021-01-04T21:34:21Z</time>
      </trkpt>
      <trkpt lat="45.91828" lon="4.52225">
        <ele>359</ele>
        <time>2021-01-04T21:34:29Z</time>
      </trkpt>
      <trkpt lat="45.91833" lon="4.52225">
        <ele>359</ele>
        <time>2021-01-04T21:34:36Z</time>
      </trkpt>
      <trkpt lat="45.9184" lon="4.52234">
        <ele>358</ele>
        <time>2021-01-04T21:34:48Z</time>
      </trkpt>
      <trkpt lat="45.9186" lon="4.52276">
        <ele>357</ele>
        <time>2021-01-04T21:35:36Z</time>
      </trkpt>
      <trkpt lat="45.91866" lon="4.52293">
        <ele>357</ele>
        <time>2021-01-04T21:35:53Z</time>
      </trkpt>
      <trkpt lat="45.91868" lon="4.52306">
        <ele>357</ele>
        <time>2021-01-04T21:36:06Z</time>
      </trkpt>
      <trkpt lat="45.91867" lon="4.52312">
        <ele>357</ele>
        <time>2021-01-04T21:36:11Z</time>
      </trkpt>
      <trkpt lat="45.91856" lon="4.52327">
        <ele>357</ele>
        <time>2021-01-04T21:36:32Z</time>
      </trkpt>
      <trkpt lat="45.91848" lon="4.52343">
        <ele>356</ele>
        <time>2021-01-04T21:36:50Z</time>
      </trkpt>
      <trkpt lat="45.91845" lon="4.52353">
        <ele>356</ele>
        <time>2021-01-04T21:37:00Z</time>
      </trkpt>
      <trkpt lat="45.91845" lon="4.52362">
        <ele>357</ele>
        <time>2021-01-04T21:37:08Z</time>
      </trkpt>
      <trkpt lat="45.91848" lon="4.5237">
        <ele>357</ele>
        <time>2021-01-04T21:37:17Z</time>
      </trkpt>
      <trkpt lat="45.91863" lon="4.52387">
        <ele>359</ele>
        <time>2021-01-04T21:37:42Z</time>
      </trkpt>
      <trkpt lat="45.91882" lon="4.52397">
        <ele>361</ele>
        <time>2021-01-04T21:38:09Z</time>
      </trkpt>
      <trkpt lat="45.91888" lon="4.52407">
        <ele>362</ele>
        <time>2021-01-04T21:38:22Z</time>
      </trkpt>
      <trkpt lat="45.9188" lon="4.5245">
        <ele>364</ele>
        <time>2021-01-04T21:39:03Z</time>
      </trkpt>
      <trkpt lat="45.91872" lon="4.52481">
        <ele>365</ele>
        <time>2021-01-04T21:39:34Z</time>
      </trkpt>
      <trkpt lat="45.91864" lon="4.52499">
        <ele>366</ele>
        <time>2021-01-04T21:39:53Z</time>
      </trkpt>
      <trkpt lat="45.91844" lon="4.52537">
        <ele>369</ele>
        <time>2021-01-04T21:40:38Z</time>
      </trkpt>
      <trkpt lat="45.91842" lon="4.52545">
        <ele>369</ele>
        <time>2021-01-04T21:40:45Z</time>
      </trkpt>
      <trkpt lat="45.91835" lon="4.52544">
        <ele>369</ele>
        <time>2021-01-04T21:40:55Z</time>
      </trkpt>
      <trkpt lat="45.91829" lon="4.52548">
        <ele>369</ele>
        <time>2021-01-04T21:41:04Z</time>
      </trkpt>
      <trkpt lat="45.9178" lon="4.52615">
        <ele>370</ele>
        <time>2021-01-04T21:42:34Z</time>
      </trkpt>
      <trkpt lat="45.91764" lon="4.52646">
        <ele>373</ele>
        <time>2021-01-04T21:43:10Z</time>
      </trkpt>
      <trkpt lat="45.9173" lon="4.52722">
        <ele>374</ele>
        <time>2021-01-04T21:44:34Z</time>
      </trkpt>
      <trkpt lat="45.91721" lon="4.52765">
        <ele>374</ele>
        <time>2021-01-04T21:45:15Z</time>
      </trkpt>
      <trkpt lat="45.9184" lon="4.52803">
        <ele>390</ele>
        <time>2021-01-04T21:47:58Z</time>
      </trkpt>
      <trkpt lat="45.91852" lon="4.52812">
        <ele>390</ele>
        <time>2021-01-04T21:48:16Z</time>
      </trkpt>
      <trkpt lat="45.91869" lon="4.52842">
        <ele>390</ele>
        <time>2021-01-04T21:48:52Z</time>
      </trkpt>
      <trkpt lat="45.91892" lon="4.5281">
        <ele>390</ele>
        <time>2021-01-04T21:49:35Z</time>
      </trkpt>
      <trkpt lat="45.9191" lon="4.52789">
        <ele>390</ele>
        <time>2021-01-04T21:50:06Z</time>
      </trkpt>
      <trkpt lat="45.91946" lon="4.52769">
        <ele>390</ele>
        <time>2021-01-04T21:50:57Z</time>
      </trkpt>
      <trkpt lat="45.9198" lon="4.52747">
        <ele>389</ele>
        <time>2021-01-04T21:51:47Z</time>
      </trkpt>
      <trkpt lat="45.92043" lon="4.52674">
        <ele>387</ele>
        <time>2021-01-04T21:53:35Z</time>
      </trkpt>
      <trkpt lat="45.92067" lon="4.52682">
        <ele>387</ele>
        <time>2021-01-04T21:54:08Z</time>
      </trkpt>
      <trkpt lat="45.92071" lon="4.52666">
        <ele>387</ele>
        <time>2021-01-04T21:54:24Z</time>
      </trkpt>
      <trkpt lat="45.92333" lon="4.5287">
        <ele>382</ele>
        <time>2021-01-04T22:01:01Z</time>
      </trkpt>
      <trkpt lat="45.92333" lon="4.5287">
        <ele>382</ele>
        <time>2021-01-04T22:01:01Z</time>
      </trkpt>
      <trkpt lat="45.92734" lon="4.52579">
        <ele>386</ele>
        <time>2021-01-04T22:11:01Z</time>
      </trkpt>
      <trkpt lat="45.92734" lon="4.52579">
        <ele>386</ele>
        <time>2021-01-04T22:11:01Z</time>
      </trkpt>
      <trkpt lat="45.92752" lon="4.52309">
        <ele>415</ele>
        <time>2021-01-04T22:15:12Z</time>
      </trkpt>
      <trkpt lat="45.92752" lon="4.52309">
        <ele>415</ele>
        <time>2021-01-04T22:15:12Z</time>
      </trkpt>
      <trkpt lat="45.92876" lon="4.52309">
        <ele>417</ele>
        <time>2021-01-04T22:17:58Z</time>
      </trkpt>
      <trkpt lat="45.92876" lon="4.52309">
        <ele>417</ele>
        <time>2021-01-04T22:17:58Z</time>
      </trkpt>
      <trkpt lat="45.92915" lon="4.52222">
        <ele>427</ele>
        <time>2021-01-04T22:19:34Z</time>
      </trkpt>
      <trkpt lat="45.92915" lon="4.52219">
        <ele>427</ele>
        <time>2021-01-04T22:19:37Z</time>
      </trkpt>
      <trkpt lat="45.9296" lon="4.52212">
        <ele>428</ele>
        <time>2021-01-04T22:20:37Z</time>
      </trkpt>
      <trkpt lat="45.92968" lon="4.52202">
        <ele>428</ele>
        <time>2021-01-04T22:20:51Z</time>
      </trkpt>
      <trkpt lat="45.93008" lon="4.52151">
        <ele>431</ele>
        <time>2021-01-04T22:22:03Z</time>
      </trkpt>
      <trkpt lat="45.93084" lon="4.52097">
        <ele>432</ele>
        <time>2021-01-04T22:23:56Z</time>
      </trkpt>
      <trkpt lat="45.93378" lon="4.51949">
        <ele>454</ele>
        <time>2021-01-04T22:30:51Z</time>
      </trkpt>
      <trkpt lat="45.93475" lon="4.51869">
        <ele>459</ele>
        <time>2021-01-04T22:33:21Z</time>
      </trkpt>
      <trkpt lat="45.93536" lon="4.51811">
        <ele>463</ele>
        <time>2021-01-04T22:34:58Z</time>
      </trkpt>
      <trkpt lat="45.93547" lon="4.51795">
        <ele>464</ele>
        <time>2021-01-04T22:35:19Z</time>
      </trkpt>
      <trkpt lat="45.93567" lon="4.51776">
        <ele>467</ele>
        <time>2021-01-04T22:35:51Z</time>
      </trkpt>
      <trkpt lat="45.93587" lon="4.51762">
        <ele>470</ele>
        <time>2021-01-04T22:36:21Z</time>
      </trkpt>
      <trkpt lat="45.93628" lon="4.51742">
        <ele>474</ele>
        <time>2021-01-04T22:37:19Z</time>
      </trkpt>
      <trkpt lat="45.93643" lon="4.5173">
        <ele>475</ele>
        <time>2021-01-04T22:37:41Z</time>
      </trkpt>
      <trkpt lat="45.93654" lon="4.51719">
        <ele>477</ele>
        <time>2021-01-04T22:37:59Z</time>
      </trkpt>
      <trkpt lat="45.93673" lon="4.51689">
        <ele>478</ele>
        <time>2021-01-04T22:38:37Z</time>
      </trkpt>
      <trkpt lat="45.93669" lon="4.51712">
        <ele>478</ele>
        <time>2021-01-04T22:38:59Z</time>
      </trkpt>
      <trkpt lat="45.93673" lon="4.51689">
        <ele>478</ele>
        <time>2021-01-04T22:39:21Z</time>
      </trkpt>
      <trkpt lat="45.93684" lon="4.5166">
        <ele>479</ele>
        <time>2021-01-04T22:39:52Z</time>
      </trkpt>
      <trkpt lat="45.93698" lon="4.51609">
        <ele>481</ele>
        <time>2021-01-04T22:40:43Z</time>
      </trkpt>
      <trkpt lat="45.93721" lon="4.51606">
        <ele>482</ele>
        <time>2021-01-04T22:41:13Z</time>
      </trkpt>
      <trkpt lat="45.93746" lon="4.51593">
        <ele>484</ele>
        <time>2021-01-04T22:41:49Z</time>
      </trkpt>
      <trkpt lat="45.93757" lon="4.51584">
        <ele>484</ele>
        <time>2021-01-04T22:42:06Z</time>
      </trkpt>
      <trkpt lat="45.93787" lon="4.51551">
        <ele>488</ele>
        <time>2021-01-04T22:42:56Z</time>
      </trkpt>
      <trkpt lat="45.93805" lon="4.51536">
        <ele>491</ele>
        <time>2021-01-04T22:43:24Z</time>
      </trkpt>
      <trkpt lat="45.93815" lon="4.5153">
        <ele>492</ele>
        <time>2021-01-04T22:43:38Z</time>
      </trkpt>
      <trkpt lat="45.93838" lon="4.51532">
        <ele>491</ele>
        <time>2021-01-04T22:44:09Z</time>
      </trkpt>
      <trkpt lat="45.93857" lon="4.5154">
        <ele>487</ele>
        <time>2021-01-04T22:44:36Z</time>
      </trkpt>
      <trkpt lat="45.9388" lon="4.51545">
        <ele>484</ele>
        <time>2021-01-04T22:45:07Z</time>
      </trkpt>
      <trkpt lat="45.93913" lon="4.51545">
        <ele>481</ele>
        <time>2021-01-04T22:45:51Z</time>
      </trkpt>
      <trkpt lat="45.93927" lon="4.51538">
        <ele>481</ele>
        <time>2021-01-04T22:46:10Z</time>
      </trkpt>
      <trkpt lat="45.93967" lon="4.515">
        <ele>482</ele>
        <time>2021-01-04T22:47:14Z</time>
      </trkpt>
      <trkpt lat="45.93977" lon="4.51487">
        <ele>482</ele>
        <time>2021-01-04T22:47:32Z</time>
      </trkpt>
      <trkpt lat="45.93998" lon="4.51442">
        <ele>483</ele>
        <time>2021-01-04T22:48:23Z</time>
      </trkpt>
      <trkpt lat="45.94007" lon="4.51409">
        <ele>483</ele>
        <time>2021-01-04T22:48:56Z</time>
      </trkpt>
      <trkpt lat="45.94007" lon="4.51374">
        <ele>486</ele>
        <time>2021-01-04T22:49:28Z</time>
      </trkpt>
      <trkpt lat="45.94012" lon="4.51356">
        <ele>485</ele>
        <time>2021-01-04T22:49:46Z</time>
      </trkpt>
      <trkpt lat="45.94022" lon="4.51339">
        <ele>482</ele>
        <time>2021-01-04T22:50:07Z</time>
      </trkpt>
      <trkpt lat="45.94035" lon="4.51329">
        <ele>478</ele>
        <time>2021-01-04T22:50:26Z</time>
      </trkpt>
      <trkpt lat="45.94079" lon="4.51305">
        <ele>464</ele>
        <time>2021-01-04T22:51:29Z</time>
      </trkpt>
      <trkpt lat="45.94141" lon="4.51253">
        <ele>456</ele>
        <time>2021-01-04T22:53:05Z</time>
      </trkpt>
      <trkpt lat="45.94155" lon="4.51239">
        <ele>453</ele>
        <time>2021-01-04T22:53:28Z</time>
      </trkpt>
      <trkpt lat="45.94191" lon="4.51195">
        <ele>450</ele>
        <time>2021-01-04T22:54:31Z</time>
      </trkpt>
      <trkpt lat="45.94226" lon="4.51137">
        <ele>452</ele>
        <time>2021-01-04T22:55:42Z</time>
      </trkpt>
      <trkpt lat="45.94236" lon="4.51126">
        <ele>452</ele>
        <time>2021-01-04T22:55:59Z</time>
      </trkpt>
      <trkpt lat="45.94248" lon="4.51123">
        <ele>449</ele>
        <time>2021-01-04T22:56:15Z</time>
      </trkpt>
      <trkpt lat="45.94257" lon="4.51128">
        <ele>448</ele>
        <time>2021-01-04T22:56:28Z</time>
      </trkpt>
      <trkpt lat="45.9429" lon="4.51168">
        <ele>441</ele>
        <time>2021-01-04T22:57:26Z</time>
      </trkpt>
      <trkpt lat="45.94307" lon="4.512">
        <ele>437</ele>
        <time>2021-01-04T22:58:03Z</time>
      </trkpt>
      <trkpt lat="45.94319" lon="4.51218">
        <ele>435</ele>
        <time>2021-01-04T22:58:26Z</time>
      </trkpt>
      <trkpt lat="45.94335" lon="4.51227">
        <ele>434</ele>
        <time>2021-01-04T22:58:49Z</time>
      </trkpt>
      <trkpt lat="45.94354" lon="4.51233">
        <ele>432</ele>
        <time>2021-01-04T22:59:15Z</time>
      </trkpt>
      <trkpt lat="45.94356" lon="4.51233">
        <ele>432</ele>
        <time>2021-01-04T22:59:18Z</time>
      </trkpt>
      <trkpt lat="45.94354" lon="4.51233">
        <ele>432</ele>
        <time>2021-01-04T22:59:20Z</time>
      </trkpt>
      <trkpt lat="45.94364" lon="4.51316">
        <ele>423</ele>
        <time>2021-01-04T23:00:38Z</time>
      </trkpt>
      <trkpt lat="45.94372" lon="4.51357">
        <ele>419</ele>
        <time>2021-01-04T23:01:18Z</time>
      </trkpt>
      <trkpt lat="45.94396" lon="4.51415">
        <ele>414</ele>
        <time>2021-01-04T23:02:21Z</time>
      </trkpt>
      <trkpt lat="45.94407" lon="4.51437">
        <ele>414</ele>
        <time>2021-01-04T23:02:46Z</time>
      </trkpt>
      <trkpt lat="45.94429" lon="4.51492">
        <ele>411</ele>
        <time>2021-01-04T23:03:45Z</time>
      </trkpt>
      <trkpt lat="45.94439" lon="4.51525">
        <ele>408</ele>
        <time>2021-01-04T23:04:18Z</time>
      </trkpt>
      <trkpt lat="45.9445" lon="4.51556">
        <ele>405</ele>
        <time>2021-01-04T23:04:50Z</time>
      </trkpt>
      <trkpt lat="45.94458" lon="4.51617">
        <ele>400</ele>
        <time>2021-01-04T23:05:48Z</time>
      </trkpt>
      <trkpt lat="45.94469" lon="4.51647">
        <ele>399</ele>
        <time>2021-01-04T23:06:19Z</time>
      </trkpt>
      <trkpt lat="45.94483" lon="4.51677">
        <ele>398</ele>
        <time>2021-01-04T23:06:53Z</time>
      </trkpt>
      <trkpt lat="45.94514" lon="4.51757">
        <ele>394</ele>
        <time>2021-01-04T23:08:18Z</time>
      </trkpt>
      <trkpt lat="45.94522" lon="4.51787">
        <ele>391</ele>
        <time>2021-01-04T23:08:48Z</time>
      </trkpt>
      <trkpt lat="45.94537" lon="4.52008">
        <ele>370</ele>
        <time>2021-01-04T23:12:14Z</time>
      </trkpt>
      <trkpt lat="45.94533" lon="4.52112">
        <ele>359</ele>
        <time>2021-01-04T23:13:50Z</time>
      </trkpt>
      <trkpt lat="45.94528" lon="4.52143">
        <ele>353</ele>
        <time>2021-01-04T23:14:20Z</time>
      </trkpt>
      <trkpt lat="45.94526" lon="4.52179">
        <ele>348</ele>
        <time>2021-01-04T23:14:53Z</time>
      </trkpt>
      <trkpt lat="45.94526" lon="4.52238">
        <ele>344</ele>
        <time>2021-01-04T23:15:48Z</time>
      </trkpt>
      <trkpt lat="45.94523" lon="4.52252">
        <ele>343</ele>
        <time>2021-01-04T23:16:02Z</time>
      </trkpt>
      <trkpt lat="45.94516" lon="4.52262">
        <ele>342</ele>
        <time>2021-01-04T23:16:15Z</time>
      </trkpt>
      <trkpt lat="45.94502" lon="4.52268">
        <ele>342</ele>
        <time>2021-01-04T23:16:34Z</time>
      </trkpt>
      <trkpt lat="45.94489" lon="4.52286">
        <ele>339</ele>
        <time>2021-01-04T23:16:58Z</time>
      </trkpt>
      <trkpt lat="45.94412" lon="4.52447">
        <ele>317</ele>
        <time>2021-01-04T23:20:00Z</time>
      </trkpt>
      <trkpt lat="45.94393" lon="4.52484">
        <ele>311</ele>
        <time>2021-01-04T23:20:42Z</time>
      </trkpt>
      <trkpt lat="45.94364" lon="4.52529">
        <ele>305</ele>
        <time>2021-01-04T23:21:39Z</time>
      </trkpt>
      <trkpt lat="45.94353" lon="4.52543">
        <ele>303</ele>
        <time>2021-01-04T23:21:59Z</time>
      </trkpt>
      <trkpt lat="45.94331" lon="4.52545">
        <ele>302</ele>
        <time>2021-01-04T23:22:28Z</time>
      </trkpt>
      <trkpt lat="45.94305" lon="4.52556">
        <ele>304</ele>
        <time>2021-01-04T23:23:05Z</time>
      </trkpt>
      <trkpt lat="45.9429" lon="4.52598">
        <ele>304</ele>
        <time>2021-01-04T23:23:48Z</time>
      </trkpt>
      <trkpt lat="45.94284" lon="4.52622">
        <ele>304</ele>
        <time>2021-01-04T23:24:12Z</time>
      </trkpt>
      <trkpt lat="45.94282" lon="4.52638">
        <ele>304</ele>
        <time>2021-01-04T23:24:27Z</time>
      </trkpt>
      <trkpt lat="45.9428" lon="4.52675">
        <ele>304</ele>
        <time>2021-01-04T23:25:02Z</time>
      </trkpt>
      <trkpt lat="45.94273" lon="4.52732">
        <ele>307</ele>
        <time>2021-01-04T23:25:55Z</time>
      </trkpt>
      <trkpt lat="45.94272" lon="4.52759">
        <ele>308</ele>
        <time>2021-01-04T23:26:20Z</time>
      </trkpt>
      <trkpt lat="45.9428" lon="4.52863">
        <ele>314</ele>
        <time>2021-01-04T23:27:58Z</time>
      </trkpt>
      <trkpt lat="45.94283" lon="4.52872">
        <ele>316</ele>
        <time>2021-01-04T23:28:07Z</time>
      </trkpt>
      <trkpt lat="45.94288" lon="4.52879">
        <ele>318</ele>
        <time>2021-01-04T23:28:16Z</time>
      </trkpt>
      <trkpt lat="45.94286" lon="4.52844">
        <ele>317</ele>
        <time>2021-01-04T23:28:49Z</time>
      </trkpt>
      <trkpt lat="45.94301" lon="4.52869">
        <ele>323</ele>
        <time>2021-01-04T23:29:19Z</time>
      </trkpt>
      <trkpt lat="45.94305" lon="4.52884">
        <ele>325</ele>
        <time>2021-01-04T23:29:34Z</time>
      </trkpt>
      <trkpt lat="45.94311" lon="4.52892">
        <ele>327</ele>
        <time>2021-01-04T23:29:45Z</time>
      </trkpt>
      <trkpt lat="45.94318" lon="4.52908">
        <ele>330</ele>
        <time>2021-01-04T23:30:03Z</time>
      </trkpt>
      <trkpt lat="45.94325" lon="4.52929">
        <ele>332</ele>
        <time>2021-01-04T23:30:24Z</time>
      </trkpt>
      <trkpt lat="45.9434" lon="4.52964">
        <ele>333</ele>
        <time>2021-01-04T23:31:02Z</time>
      </trkpt>
      <trkpt lat="45.94349" lon="4.52974">
        <ele>334</ele>
        <time>2021-01-04T23:31:18Z</time>
      </trkpt>
      <trkpt lat="45.94367" lon="4.53006">
        <ele>334</ele>
        <time>2021-01-04T23:31:56Z</time>
      </trkpt>
      <trkpt lat="45.94382" lon="4.53019">
        <ele>334</ele>
        <time>2021-01-04T23:32:19Z</time>
      </trkpt>
      <trkpt lat="45.94387" lon="4.53009">
        <ele>338</ele>
        <time>2021-01-04T23:32:31Z</time>
      </trkpt>
      <trkpt lat="45.94397" lon="4.53">
        <ele>342</ele>
        <time>2021-01-04T23:32:46Z</time>
      </trkpt>
      <trkpt lat="45.94406" lon="4.52995">
        <ele>345</ele>
        <time>2021-01-04T23:32:59Z</time>
      </trkpt>
      <trkpt lat="45.94409" lon="4.52986">
        <ele>347</ele>
        <time>2021-01-04T23:33:08Z</time>
      </trkpt>
      <trkpt lat="45.9442" lon="4.52969">
        <ele>351</ele>
        <time>2021-01-04T23:33:30Z</time>
      </trkpt>
      <trkpt lat="45.94434" lon="4.52937">
        <ele>352</ele>
        <time>2021-01-04T23:34:05Z</time>
      </trkpt>
      <trkpt lat="45.94435" lon="4.52924">
        <ele>354</ele>
        <time>2021-01-04T23:34:17Z</time>
      </trkpt>
      <trkpt lat="45.94433" lon="4.52914">
        <ele>356</ele>
        <time>2021-01-04T23:34:27Z</time>
      </trkpt>
      <trkpt lat="45.94436" lon="4.52905">
        <ele>355</ele>
        <time>2021-01-04T23:34:36Z</time>
      </trkpt>
      <trkpt lat="45.9444" lon="4.52899">
        <ele>354</ele>
        <time>2021-01-04T23:34:44Z</time>
      </trkpt>
      <trkpt lat="45.94452" lon="4.52894">
        <ele>352</ele>
        <time>2021-01-04T23:35:01Z</time>
      </trkpt>
      <trkpt lat="45.94461" lon="4.52894">
        <ele>350</ele>
        <time>2021-01-04T23:35:13Z</time>
      </trkpt>
      <trkpt lat="45.94468" lon="4.52883">
        <ele>350</ele>
        <time>2021-01-04T23:35:26Z</time>
      </trkpt>
      <trkpt lat="45.94483" lon="4.5284">
        <ele>353</ele>
        <time>2021-01-04T23:36:11Z</time>
      </trkpt>
      <trkpt lat="45.94502" lon="4.5281">
        <ele>352</ele>
        <time>2021-01-04T23:36:49Z</time>
      </trkpt>
      <trkpt lat="45.94541" lon="4.52755">
        <ele>349</ele>
        <time>2021-01-04T23:38:02Z</time>
      </trkpt>
      <trkpt lat="45.94562" lon="4.52725">
        <ele>349</ele>
        <time>2021-01-04T23:38:41Z</time>
      </trkpt>
      <trkpt lat="45.9457" lon="4.5271">
        <ele>351</ele>
        <time>2021-01-04T23:38:59Z</time>
      </trkpt>
      <trkpt lat="45.94585" lon="4.5266">
        <ele>356</ele>
        <time>2021-01-04T23:39:49Z</time>
      </trkpt>
      <trkpt lat="45.94586" lon="4.52698">
        <ele>352</ele>
        <time>2021-01-04T23:40:24Z</time>
      </trkpt>
      <trkpt lat="45.94582" lon="4.52728">
        <ele>350</ele>
        <time>2021-01-04T23:40:53Z</time>
      </trkpt>
      <trkpt lat="45.94562" lon="4.52805">
        <ele>340</ele>
        <time>2021-01-04T23:42:09Z</time>
      </trkpt>
      <trkpt lat="45.94534" lon="4.52888">
        <ele>332</ele>
        <time>2021-01-04T23:43:35Z</time>
      </trkpt>
      <trkpt lat="45.94502" lon="4.5298">
        <ele>325</ele>
        <time>2021-01-04T23:45:10Z</time>
      </trkpt>
      <trkpt lat="45.94491" lon="4.53036">
        <ele>319</ele>
        <time>2021-01-04T23:46:04Z</time>
      </trkpt>
      <trkpt lat="45.94483" lon="4.53117">
        <ele>307</ele>
        <time>2021-01-04T23:47:20Z</time>
      </trkpt>
      <trkpt lat="45.94466" lon="4.53218">
        <ele>292</ele>
        <time>2021-01-04T23:48:56Z</time>
      </trkpt>
      <trkpt lat="45.94468" lon="4.53297">
        <ele>283</ele>
        <time>2021-01-04T23:50:10Z</time>
      </trkpt>
      <trkpt lat="45.94467" lon="4.5331">
        <ele>283</ele>
        <time>2021-01-04T23:50:22Z</time>
      </trkpt>
      <trkpt lat="45.94461" lon="4.53318">
        <ele>282</ele>
        <time>2021-01-04T23:50:33Z</time>
      </trkpt>
      <trkpt lat="45.94456" lon="4.53306">
        <ele>283</ele>
        <time>2021-01-04T23:50:46Z</time>
      </trkpt>
      <trkpt lat="45.94448" lon="4.533">
        <ele>284</ele>
        <time>2021-01-04T23:50:58Z</time>
      </trkpt>
      <trkpt lat="45.94434" lon="4.53294">
        <ele>285</ele>
        <time>2021-01-04T23:51:17Z</time>
      </trkpt>
      <trkpt lat="45.94423" lon="4.53283">
        <ele>287</ele>
        <time>2021-01-04T23:51:35Z</time>
      </trkpt>
      <trkpt lat="45.94417" lon="4.53271">
        <ele>288</ele>
        <time>2021-01-04T23:51:49Z</time>
      </trkpt>
      <trkpt lat="45.94423" lon="4.53283">
        <ele>287</ele>
        <time>2021-01-04T23:52:03Z</time>
      </trkpt>
      <trkpt lat="45.94434" lon="4.53294">
        <ele>285</ele>
        <time>2021-01-04T23:52:21Z</time>
      </trkpt>
      <trkpt lat="45.94448" lon="4.533">
        <ele>284</ele>
        <time>2021-01-04T23:52:40Z</time>
      </trkpt>
      <trkpt lat="45.94456" lon="4.53306">
        <ele>283</ele>
        <time>2021-01-04T23:52:52Z</time>
      </trkpt>
      <trkpt lat="45.94461" lon="4.53318">
        <ele>282</ele>
        <time>2021-01-04T23:53:05Z</time>
      </trkpt>
      <trkpt lat="45.9446" lon="4.53331">
        <ele>281</ele>
        <time>2021-01-04T23:53:17Z</time>
      </trkpt>
      <trkpt lat="45.94455" lon="4.53339">
        <ele>281</ele>
        <time>2021-01-04T23:53:27Z</time>
      </trkpt>
      <trkpt lat="45.94443" lon="4.53353">
        <ele>280</ele>
        <time>2021-01-04T23:53:48Z</time>
      </trkpt>
      <trkpt lat="45.94423" lon="4.5337">
        <ele>280</ele>
        <time>2021-01-04T23:54:19Z</time>
      </trkpt>
      <trkpt lat="45.94416" lon="4.53384">
        <ele>279</ele>
        <time>2021-01-04T23:54:35Z</time>
      </trkpt>
      <trkpt lat="45.94415" lon="4.53403">
        <ele>278</ele>
        <time>2021-01-04T23:54:53Z</time>
      </trkpt>
      <trkpt lat="45.9442" lon="4.53422">
        <ele>277</ele>
        <time>2021-01-04T23:55:11Z</time>
      </trkpt>
      <trkpt lat="45.94425" lon="4.53423">
        <ele>277</ele>
        <time>2021-01-04T23:55:18Z</time>
      </trkpt>
      <trkpt lat="45.94431" lon="4.53427">
        <ele>277</ele>
        <time>2021-01-04T23:55:27Z</time>
      </trkpt>
      <trkpt lat="45.9444" lon="4.53442">
        <ele>276</ele>
        <time>2021-01-04T23:55:45Z</time>
      </trkpt>
      <trkpt lat="45.94455" lon="4.53484">
        <ele>275</ele>
        <time>2021-01-04T23:56:29Z</time>
      </trkpt>
      <trkpt lat="45.94462" lon="4.53506">
        <ele>275</ele>
        <time>2021-01-04T23:56:52Z</time>
      </trkpt>
      <trkpt lat="45.94472" lon="4.53536">
        <ele>274</ele>
        <time>2021-01-04T23:57:22Z</time>
      </trkpt>
      <trkpt lat="45.94483" lon="4.53565">
        <ele>274</ele>
        <time>2021-01-04T23:57:53Z</time>
      </trkpt>
      <trkpt lat="45.94505" lon="4.53607">
        <ele>274</ele>
        <time>2021-01-04T23:58:42Z</time>
      </trkpt>
      <trkpt lat="45.94527" lon="4.5364">
        <ele>275</ele>
        <time>2021-01-04T23:59:24Z</time>
      </trkpt>
      <trkpt lat="45.94544" lon="4.53661">
        <ele>275</ele>
        <time>2021-01-04T23:59:54Z</time>
      </trkpt>
    </trkseg>
  </trk>
</gpx>